createdAt,value
2022-11-21T00:00:20.124Z,99.90
2022-11-21T00:02:48.227Z,99.90
2022-11-21T00:05:16.641Z,95.80
2022-11-21T00:07:45.924Z,92.30
2022-11-21T00:10:14.498Z,85.30
2022-11-21T00:12:44.020Z,84.10
2022-11-21T00:15:12.609Z,82.20
2022-11-21T00:17:40.785Z,90.60
2022-11-21T00:20:10.083Z,93.30
2022-11-21T00:22:38.323Z,97.00
2022-11-21T00:25:08.415Z,99.30
2022-11-21T00:27:36.608Z,99.90
2022-11-21T00:30:08.483Z,99.90
2022-11-21T00:32:36.737Z,97.70
2022-11-21T00:35:06.947Z,93.70
2022-11-21T00:37:35.886Z,85.30
2022-11-21T00:40:04.644Z,74.90
2022-11-21T00:42:33.247Z,65.60
2022-11-21T00:45:01.383Z,71.00
2022-11-21T00:47:30.903Z,76.20
2022-11-21T00:49:59.102Z,85.50
2022-11-21T00:52:27.305Z,90.00
2022-11-21T00:54:55.533Z,89.60
2022-11-21T00:57:23.737Z,91.50
2022-11-21T00:59:52.012Z,94.10
2022-11-21T01:02:20.303Z,91.60
2022-11-21T01:04:49.853Z,73.80
2022-11-21T01:07:18.100Z,71.80
2022-11-21T01:09:46.321Z,71.10
2022-11-21T01:12:14.556Z,72.50
2022-11-21T01:14:42.690Z,73.30
2022-11-21T01:17:11.083Z,74.40
2022-11-21T01:19:39.313Z,75.80
2022-11-21T01:22:09.265Z,85.20
2022-11-21T01:24:37.689Z,91.00
2022-11-21T01:27:05.980Z,92.10
2022-11-21T01:29:34.306Z,93.80
2022-11-21T01:32:02.454Z,95.60
2022-11-21T01:34:30.698Z,99.10
2022-11-21T01:36:58.918Z,99.50
2022-11-21T01:39:28.645Z,99.90
2022-11-21T01:41:56.825Z,99.90
2022-11-21T01:44:28.319Z,99.90
2022-11-21T01:46:56.809Z,99.90
2022-11-21T01:49:30.453Z,99.90
2022-11-21T01:52:03.029Z,99.90
2022-11-21T01:54:40.288Z,99.90
2022-11-21T01:57:14.177Z,99.90
2022-11-21T01:59:50.506Z,99.90
2022-11-21T02:02:26.412Z,99.90
2022-11-21T02:04:56.932Z,99.90
2022-11-21T02:07:28.321Z,99.90
2022-11-21T02:10:02.964Z,99.90
2022-11-21T02:12:39.093Z,99.90
2022-11-21T02:15:09.453Z,99.90
2022-11-21T02:17:37.780Z,99.90
2022-11-21T02:20:10.578Z,99.90
2022-11-21T02:22:49.175Z,99.90
2022-11-21T02:25:21.826Z,99.90
2022-11-21T02:27:56.230Z,99.90
2022-11-21T02:30:25.973Z,99.90
2022-11-21T02:32:54.504Z,99.90
2022-11-21T02:35:22.742Z,99.90
2022-11-21T02:37:59.146Z,99.90
2022-11-21T02:40:35.476Z,99.90
2022-11-21T02:43:11.822Z,99.90
2022-11-21T02:45:43.848Z,99.90
2022-11-21T02:48:12.784Z,99.90
2022-11-21T02:50:42.779Z,99.90
2022-11-21T02:53:13.805Z,99.90
2022-11-21T02:55:44.245Z,99.90
2022-11-21T02:58:13.768Z,99.90
2022-11-21T03:00:43.911Z,99.90
2022-11-21T03:03:12.727Z,99.90
2022-11-21T03:05:41.952Z,99.90
2022-11-21T03:08:10.601Z,99.90
2022-11-21T03:10:39.074Z,99.90
2022-11-21T03:13:08.615Z,99.90
2022-11-21T03:15:37.326Z,99.90
2022-11-21T03:18:06.180Z,99.90
2022-11-21T03:20:35.952Z,99.90
2022-11-21T03:23:04.569Z,99.90
2022-11-21T03:25:32.943Z,99.90
2022-11-21T03:28:01.112Z,99.90
2022-11-21T03:30:30.659Z,99.90
2022-11-21T03:32:59.787Z,99.90
2022-11-21T03:35:28.017Z,99.90
2022-11-21T03:37:56.216Z,99.90
2022-11-21T03:40:24.407Z,99.90
2022-11-21T03:42:52.587Z,99.90
2022-11-21T03:45:20.677Z,99.90
2022-11-21T03:47:50.253Z,99.90
2022-11-21T03:50:20.872Z,99.90
2022-11-21T03:52:49.055Z,99.90
2022-11-21T03:55:17.379Z,99.90
2022-11-21T03:57:45.484Z,99.90
2022-11-21T04:00:16.072Z,99.90
2022-11-21T04:02:44.214Z,99.90
2022-11-21T04:05:14.107Z,99.90
2022-11-21T04:07:42.301Z,99.90
2022-11-21T04:10:11.616Z,99.90
2022-11-21T04:12:39.770Z,99.90
2022-11-21T04:15:13.460Z,99.90
2022-11-21T04:17:42.250Z,99.90
2022-11-21T04:20:13.547Z,99.90
2022-11-21T04:22:41.763Z,99.90
2022-11-21T04:25:10.350Z,99.90
2022-11-21T04:27:38.507Z,99.90
2022-11-21T04:30:08.162Z,99.90
2022-11-21T04:32:36.286Z,99.90
2022-11-21T04:35:04.972Z,99.90
2022-11-21T04:37:34.884Z,99.90
2022-11-21T04:40:03.252Z,99.90
2022-11-21T04:42:31.368Z,99.90
2022-11-21T04:44:59.545Z,99.90
2022-11-21T04:47:27.844Z,99.90
2022-11-21T04:49:55.983Z,99.90
2022-11-21T04:52:24.239Z,99.90
2022-11-21T04:54:53.743Z,99.90
2022-11-21T04:57:21.918Z,99.90
2022-11-21T04:59:50.122Z,99.90
2022-11-21T05:02:18.280Z,99.90
2022-11-21T05:04:46.566Z,99.90
2022-11-21T05:07:15.779Z,99.90
2022-11-21T05:09:44.179Z,99.90
2022-11-21T05:12:31.309Z,99.90
2022-11-21T05:14:59.463Z,99.90
2022-11-21T05:17:29.675Z,99.90
2022-11-21T05:19:57.913Z,99.90
2022-11-21T05:22:26.084Z,99.90
2022-11-21T05:24:54.279Z,99.90
2022-11-21T05:27:23.810Z,99.90
2022-11-21T05:29:52.082Z,99.90
2022-11-21T05:32:20.259Z,99.90
2022-11-21T05:34:48.429Z,99.90
2022-11-21T05:37:16.618Z,99.90
2022-11-21T05:39:44.709Z,99.90
2022-11-21T05:42:12.830Z,99.90
2022-11-21T05:44:41.372Z,99.90
2022-11-21T05:47:09.557Z,99.90
2022-11-21T05:49:37.811Z,99.90
2022-11-21T05:52:06.482Z,99.90
2022-11-21T05:54:34.606Z,99.90
2022-11-21T05:57:02.976Z,99.90
2022-11-21T05:59:31.107Z,99.90
2022-11-21T06:02:18.061Z,99.90
2022-11-21T06:04:46.233Z,99.90
2022-11-21T06:07:14.591Z,99.90
2022-11-21T06:09:42.799Z,99.90
2022-11-21T06:12:10.957Z,99.90
2022-11-21T06:14:39.089Z,99.90
2022-11-21T06:17:08.617Z,99.90
2022-11-21T06:19:36.746Z,99.90
2022-11-21T06:22:05.015Z,99.90
2022-11-21T06:24:33.127Z,99.90
2022-11-21T06:27:01.287Z,99.90
2022-11-21T06:29:29.476Z,99.90
2022-11-21T06:31:57.657Z,99.90
2022-11-21T06:34:28.887Z,99.90
2022-11-21T06:36:57.299Z,99.90
2022-11-21T06:39:25.564Z,99.90
2022-11-21T06:41:53.749Z,99.90
2022-11-21T06:44:22.095Z,99.90
2022-11-21T06:46:51.718Z,99.90
2022-11-21T06:49:22.061Z,99.90
2022-11-21T06:51:51.670Z,99.90
2022-11-21T06:54:19.832Z,99.90
2022-11-21T06:56:47.961Z,99.90
2022-11-21T06:59:16.329Z,99.90
2022-11-21T07:01:44.618Z,99.90
2022-11-21T07:04:12.936Z,99.90
2022-11-21T07:06:41.066Z,99.90
2022-11-21T07:09:32.335Z,99.90
2022-11-21T07:12:19.100Z,99.90
2022-11-21T07:14:46.251Z,99.90
2022-11-21T07:17:15.740Z,99.90
2022-11-21T07:19:43.916Z,99.90
2022-11-21T07:22:12.060Z,99.90
2022-11-21T07:24:41.573Z,99.90
2022-11-21T07:27:09.729Z,99.90
2022-11-21T07:29:37.942Z,99.90
2022-11-21T07:32:06.398Z,99.90
2022-11-21T07:34:35.255Z,99.90
2022-11-21T07:37:05.267Z,99.90
2022-11-21T07:39:33.717Z,99.90
2022-11-21T07:42:03.211Z,99.90
2022-11-21T07:44:31.361Z,99.90
2022-11-21T07:46:59.482Z,99.90
2022-11-21T07:49:27.938Z,99.90
2022-11-21T07:51:56.415Z,99.90
2022-11-21T07:54:24.594Z,99.90
2022-11-21T07:56:52.716Z,99.90
2022-11-21T07:59:22.253Z,99.90
2022-11-21T08:01:52.574Z,99.90
2022-11-21T08:04:20.788Z,99.90
2022-11-21T08:06:48.925Z,99.90
2022-11-21T08:09:17.107Z,99.90
2022-11-21T08:11:45.308Z,99.90
2022-11-21T08:14:13.523Z,99.90
2022-11-21T08:16:43.070Z,99.90
2022-11-21T08:19:11.275Z,99.90
2022-11-21T08:21:39.414Z,99.90
2022-11-21T08:24:13.422Z,99.90
2022-11-21T08:26:42.161Z,99.90
2022-11-21T08:29:11.806Z,99.90
2022-11-21T08:31:42.406Z,99.90
2022-11-21T08:34:14.462Z,99.90
2022-11-21T08:36:42.975Z,94.30
2022-11-21T08:39:11.164Z,89.80
2022-11-21T08:41:57.032Z,86.40
2022-11-21T08:44:25.139Z,82.80
2022-11-21T08:46:54.640Z,73.50
2022-11-21T08:49:22.770Z,69.20
2022-11-21T08:51:51.277Z,78.30
2022-11-21T08:54:20.443Z,81.10
2022-11-21T08:56:48.608Z,81.70
2022-11-21T08:59:16.759Z,77.00
2022-11-21T09:01:45.292Z,75.30
2022-11-21T09:04:14.984Z,74.00
2022-11-21T09:06:43.124Z,70.10
2022-11-21T09:09:11.401Z,70.20
2022-11-21T09:11:39.538Z,70.90
2022-11-21T09:14:27.558Z,73.50
2022-11-21T09:17:13.223Z,64.10
2022-11-21T09:19:42.773Z,51.30
2022-11-21T09:22:10.913Z,42.40
2022-11-21T09:24:39.054Z,31.90
2022-11-21T09:27:07.225Z,22.90
2022-11-21T09:29:35.488Z,25.10
2022-11-21T09:32:03.662Z,28.20
2022-11-21T09:34:32.570Z,26.80
2022-11-21T09:37:02.086Z,27.00
2022-11-21T09:39:30.539Z,10.80
2022-11-21T09:42:16.614Z,15.10
2022-11-21T09:45:08.915Z,11.90
2022-11-21T09:47:43.296Z,1.00
2022-11-21T09:50:30.129Z,1.00
2022-11-21T09:53:06.177Z,1.00
2022-11-21T09:55:47.103Z,1.00
2022-11-21T09:58:30.892Z,1.00
2022-11-21T10:00:59.833Z,1.00
2022-11-21T10:03:34.242Z,1.00
2022-11-21T10:06:12.661Z,1.00
2022-11-21T10:08:58.797Z,1.00
2022-11-21T10:12:02.665Z,1.00
2022-11-21T10:14:53.381Z,1.00
2022-11-21T10:17:34.148Z,1.00
2022-11-21T10:20:32.302Z,1.00
2022-11-21T10:23:40.073Z,1.00
2022-11-21T10:26:18.826Z,1.00
2022-11-21T10:28:58.325Z,1.00
2022-11-21T10:31:39.214Z,1.00
2022-11-21T10:34:15.538Z,1.00
2022-11-21T10:36:50.514Z,1.00
2022-11-21T10:39:27.075Z,1.00
2022-11-21T10:42:05.207Z,1.00
2022-11-21T10:44:50.893Z,1.00
2022-11-21T10:47:27.523Z,1.00
2022-11-21T10:50:07.001Z,1.00
2022-11-21T10:52:40.765Z,1.00
2022-11-21T10:55:13.403Z,1.00
2022-11-21T10:57:47.749Z,1.00
2022-11-21T11:00:25.545Z,1.00
2022-11-21T11:03:05.753Z,1.00
2022-11-21T11:05:37.106Z,1.00
2022-11-21T11:08:09.044Z,1.00
2022-11-21T11:10:40.090Z,1.00
2022-11-21T11:13:45.655Z,1.00
2022-11-21T11:16:19.419Z,1.00
2022-11-21T11:18:55.871Z,1.00
2022-11-21T11:21:26.599Z,1.00
2022-11-21T11:24:07.634Z,1.00
2022-11-21T11:26:36.426Z,1.00
2022-11-21T11:29:17.194Z,1.00
2022-11-21T11:31:53.171Z,1.00
2022-11-21T11:34:21.676Z,1.00
2022-11-21T11:37:04.991Z,1.00
2022-11-21T11:39:40.960Z,1.00
2022-11-21T11:43:02.329Z,1.00
2022-11-21T11:46:28.257Z,1.00
2022-11-21T11:49:19.933Z,1.00
2022-11-21T11:51:54.441Z,1.00
2022-11-21T11:54:30.849Z,1.00
2022-11-21T11:57:00.549Z,1.00
2022-11-21T11:59:37.671Z,1.00
2022-11-21T12:02:19.578Z,1.00
2022-11-21T12:04:55.564Z,1.00
2022-11-21T12:10:27.436Z,1.00
2022-11-21T12:13:06.548Z,1.00
2022-11-21T12:16:05.916Z,1.00
2022-11-21T12:18:52.327Z,1.00
2022-11-21T12:21:21.067Z,1.00
2022-11-21T12:23:52.221Z,1.00
2022-11-21T12:26:34.633Z,1.00
2022-11-21T12:29:34.721Z,1.00
2022-11-21T12:32:21.637Z,7.20
2022-11-21T12:35:20.688Z,12.70
2022-11-21T12:38:08.625Z,22.10
2022-11-21T12:40:56.462Z,12.30
2022-11-21T12:43:41.187Z,15.50
2022-11-21T12:46:21.929Z,13.80
2022-11-21T12:49:26.500Z,1.00
2022-11-21T12:52:36.037Z,1.00
2022-11-21T12:55:20.133Z,1.00
2022-11-21T12:58:20.801Z,1.00
2022-11-21T13:01:14.365Z,1.00
2022-11-21T13:03:55.976Z,9.40
2022-11-21T13:06:28.682Z,11.00
2022-11-21T13:09:02.616Z,3.20
2022-11-21T13:11:59.987Z,4.70
2022-11-21T13:14:39.124Z,3.10
2022-11-21T13:17:35.724Z,1.00
2022-11-21T13:20:18.362Z,1.00
2022-11-21T13:23:00.187Z,1.00
2022-11-21T13:25:47.675Z,1.00
2022-11-21T13:28:34.515Z,1.00
2022-11-21T13:31:26.709Z,1.00
2022-11-21T13:33:55.091Z,1.00
2022-11-21T13:36:43.367Z,1.00
2022-11-21T13:39:39.484Z,1.00
2022-11-21T13:42:33.840Z,1.00
2022-11-21T13:45:39.036Z,1.00
2022-11-21T13:48:37.149Z,1.00
2022-11-21T13:51:53.449Z,1.00
2022-11-21T13:55:08.987Z,1.00
2022-11-21T13:57:59.447Z,1.00
2022-11-21T14:01:25.090Z,1.00
2022-11-21T14:04:33.755Z,6.00
2022-11-21T14:07:29.215Z,11.80
2022-11-21T14:10:00.550Z,10.20
2022-11-21T14:12:39.650Z,6.60
2022-11-21T14:15:29.345Z,1.00
2022-11-21T14:18:00.021Z,1.00
2022-11-21T14:20:31.193Z,1.00
2022-11-21T14:23:04.537Z,1.00
2022-11-21T14:25:47.116Z,1.00
2022-11-21T14:28:24.209Z,1.00
2022-11-21T14:31:01.870Z,1.00
2022-11-21T14:33:35.113Z,1.00
2022-11-21T14:36:08.912Z,1.00
2022-11-21T14:38:43.213Z,1.00
2022-11-21T14:41:31.868Z,1.00
2022-11-21T14:44:22.846Z,1.00
2022-11-21T14:47:04.268Z,1.00
2022-11-21T14:49:32.650Z,1.00
2022-11-21T14:52:17.895Z,1.00
2022-11-21T14:55:22.383Z,1.00
2022-11-21T14:57:44.438Z,1.00
2022-11-21T15:00:51.441Z,1.00
2022-11-21T15:03:21.759Z,1.00
2022-11-21T15:11:39.296Z,1.00
2022-11-21T15:14:19.444Z,1.00
2022-11-21T15:16:50.940Z,1.00
2022-11-21T15:19:24.936Z,1.00
2022-11-21T15:21:56.930Z,1.00
2022-11-21T15:24:42.438Z,1.00
2022-11-21T15:27:34.851Z,1.00
2022-11-21T15:30:22.993Z,1.00
2022-11-21T15:33:06.693Z,1.00
2022-11-21T15:35:53.322Z,1.00
2022-11-21T15:38:30.611Z,1.00
2022-11-21T15:41:11.927Z,1.00
2022-11-21T15:43:44.490Z,1.00
2022-11-21T15:46:17.757Z,1.00
2022-11-21T15:48:51.129Z,1.00
2022-11-21T15:51:51.440Z,1.00
2022-11-21T15:54:14.472Z,1.00
2022-11-21T15:56:43.181Z,1.00
2022-11-21T15:59:11.889Z,1.00
2022-11-21T16:01:40.614Z,1.00
2022-11-21T16:04:12.864Z,1.00
2022-11-21T16:06:42.416Z,1.00
2022-11-21T16:09:10.579Z,1.00
2022-11-21T16:11:40.491Z,1.00
2022-11-21T16:14:10.278Z,1.00
2022-11-21T16:16:43.437Z,1.00
2022-11-21T16:19:13.715Z,1.00
2022-11-21T16:21:43.896Z,1.00
2022-11-21T16:24:12.103Z,1.00
2022-11-21T16:26:40.350Z,1.00
2022-11-21T16:29:08.544Z,1.00
2022-11-21T16:31:36.692Z,1.00
2022-11-21T16:34:04.880Z,5.30
2022-11-21T16:36:33.961Z,12.00
2022-11-21T16:39:09.995Z,20.00
2022-11-21T16:41:41.182Z,20.90
2022-11-21T16:44:15.519Z,19.10
2022-11-21T16:46:47.351Z,23.40
2022-11-21T16:49:15.938Z,26.90
2022-11-21T16:51:44.198Z,31.00
2022-11-21T16:54:13.874Z,40.60
2022-11-21T16:56:42.002Z,50.10
2022-11-21T16:59:10.418Z,56.60
2022-11-21T17:01:38.681Z,65.60
2022-11-21T17:04:07.064Z,70.40
2022-11-21T17:06:35.752Z,70.10
2022-11-21T17:09:04.234Z,71.50
2022-11-21T17:11:33.733Z,77.90
2022-11-21T17:14:04.230Z,80.10
2022-11-21T17:16:34.317Z,81.40
2022-11-21T17:19:04.590Z,85.10
2022-11-21T17:21:34.193Z,89.30
2022-11-21T17:24:02.400Z,90.90
2022-11-21T17:26:31.419Z,92.20
2022-11-21T17:29:03.355Z,93.10
2022-11-21T17:31:32.524Z,93.00
2022-11-21T17:34:02.046Z,92.20
2022-11-21T17:36:34.356Z,92.10
2022-11-21T17:39:03.082Z,90.90
2022-11-21T17:41:31.276Z,92.30
2022-11-21T17:44:00.941Z,94.10
2022-11-21T17:46:29.457Z,95.40
2022-11-21T17:48:59.563Z,95.00
2022-11-21T17:51:32.272Z,94.60
2022-11-21T17:54:01.862Z,93.60
2022-11-21T17:56:33.177Z,94.00
2022-11-21T17:59:04.107Z,95.80
2022-11-21T18:01:33.214Z,96.80
2022-11-21T18:04:03.828Z,96.60
2022-11-21T18:06:35.891Z,94.00
2022-11-21T18:09:06.113Z,75.00
2022-11-21T18:11:39.983Z,64.70
2022-11-21T18:14:12.467Z,62.80
2022-11-21T18:16:46.173Z,64.40
2022-11-21T18:19:16.174Z,53.70
2022-11-21T18:21:44.498Z,47.20
2022-11-21T18:24:13.532Z,42.20
2022-11-21T18:26:41.697Z,43.00
2022-11-21T18:31:59.916Z,46.80
2022-11-21T18:34:28.326Z,45.50
2022-11-21T18:36:56.438Z,47.00
2022-11-21T18:39:26.766Z,54.60
2022-11-21T18:41:55.056Z,61.80
2022-11-21T18:44:24.542Z,72.10
2022-11-21T18:46:52.694Z,83.20
2022-11-21T18:49:20.890Z,89.80
2022-11-21T18:51:49.141Z,79.70
2022-11-21T18:54:17.277Z,78.70
2022-11-21T18:56:45.422Z,87.50
2022-11-21T18:59:13.654Z,91.00
2022-11-21T19:01:43.275Z,93.40
2022-11-21T19:04:11.536Z,88.90
2022-11-21T19:06:39.719Z,88.40
2022-11-21T19:09:08.298Z,86.30
2022-11-21T19:11:36.680Z,87.40
2022-11-21T19:14:04.922Z,87.00
2022-11-21T19:16:34.207Z,83.30
2022-11-21T19:21:56.114Z,82.80
2022-11-21T19:24:24.319Z,86.20
2022-11-21T19:26:52.423Z,89.00
2022-11-21T19:29:20.631Z,92.90
2022-11-21T19:31:48.835Z,93.20
2022-11-21T19:34:18.664Z,94.60
2022-11-21T19:36:47.055Z,95.70
2022-11-21T19:39:17.520Z,92.10
2022-11-21T19:41:45.914Z,91.20
2022-11-21T19:44:14.398Z,93.70
2022-11-21T19:46:42.591Z,95.80
2022-11-21T19:49:13.506Z,98.30
2022-11-21T19:51:43.445Z,99.60
2022-11-21T19:54:16.227Z,99.90
2022-11-21T19:56:45.609Z,99.90
2022-11-21T19:59:14.901Z,99.90
2022-11-21T20:01:46.816Z,99.90
2022-11-21T20:04:17.752Z,99.90
2022-11-21T20:06:47.695Z,99.90
2022-11-21T20:09:18.986Z,99.90
2022-11-21T20:11:51.492Z,99.90
2022-11-21T20:14:22.691Z,99.90
2022-11-21T20:16:53.632Z,99.90
2022-11-21T20:19:24.864Z,99.90
2022-11-21T20:21:54.480Z,99.20
2022-11-21T20:24:22.685Z,97.20
2022-11-21T20:26:50.915Z,95.50
2022-11-21T20:29:19.231Z,95.80
2022-11-21T20:31:48.217Z,94.20
2022-11-21T20:34:16.942Z,94.30
2022-11-21T20:36:46.455Z,96.80
2022-11-21T20:39:18.667Z,97.10
2022-11-21T20:41:48.186Z,97.90
2022-11-21T20:47:08.669Z,95.90
2022-11-21T20:49:36.991Z,95.40
2022-11-21T20:54:55.510Z,95.50
2022-11-21T20:57:23.757Z,93.30
2022-11-21T20:59:51.877Z,95.70
2022-11-21T21:02:20.297Z,99.90
2022-11-21T21:04:48.473Z,99.90
2022-11-21T21:07:16.716Z,99.90
2022-11-21T21:09:45.063Z,99.90
2022-11-21T21:12:14.655Z,99.90
2022-11-21T21:14:42.863Z,99.90
2022-11-21T21:17:11.250Z,96.40
2022-11-21T21:19:39.551Z,92.50
2022-11-21T21:22:09.023Z,91.80
2022-11-21T21:24:37.225Z,91.40
2022-11-21T21:27:05.667Z,85.70
2022-11-21T21:29:35.294Z,79.90
2022-11-21T21:32:03.421Z,68.10
2022-11-21T21:34:32.539Z,58.20
2022-11-21T21:37:01.085Z,61.70
2022-11-21T21:39:29.677Z,69.00
2022-11-21T21:41:58.005Z,75.00
2022-11-21T21:44:32.732Z,84.70
2022-11-21T21:47:03.054Z,87.20
2022-11-21T21:49:31.318Z,80.30
2022-11-21T21:51:59.472Z,82.30
2022-11-21T21:54:28.153Z,83.10
2022-11-21T21:56:56.452Z,82.30
2022-11-21T21:59:25.609Z,76.00
2022-11-21T22:01:53.947Z,70.80
2022-11-21T22:04:23.905Z,74.70
2022-11-21T22:06:52.088Z,77.70
2022-11-21T22:09:20.510Z,61.30
2022-11-21T22:11:48.842Z,65.40
2022-11-21T22:14:17.908Z,74.90
2022-11-21T22:16:46.352Z,78.80
2022-11-21T22:19:15.485Z,77.60
2022-11-21T22:21:45.184Z,82.50
2022-11-21T22:24:31.539Z,74.80
2022-11-21T22:27:00.148Z,77.70
2022-11-21T22:29:28.548Z,81.80
2022-11-21T22:31:56.864Z,83.10
2022-11-21T22:34:26.501Z,82.20
2022-11-21T22:36:56.049Z,82.30
2022-11-21T22:39:24.399Z,78.00
2022-11-21T22:41:56.989Z,79.60
2022-11-21T22:44:28.193Z,73.50
2022-11-21T22:46:56.890Z,74.80
2022-11-21T22:49:25.090Z,68.50
2022-11-21T22:51:53.354Z,63.10
2022-11-21T22:54:22.957Z,60.00
2022-11-21T22:56:51.162Z,64.20
2022-11-21T22:59:19.412Z,73.70
2022-11-21T23:01:47.721Z,71.40
2022-11-21T23:04:30.071Z,64.30
2022-11-21T23:06:58.353Z,66.20
2022-11-21T23:09:28.180Z,67.70
2022-11-21T23:11:56.493Z,76.10
2022-11-21T23:14:24.704Z,76.70
2022-11-21T23:16:52.919Z,78.20
2022-11-21T23:19:21.195Z,84.90
2022-11-21T23:21:49.318Z,81.10
2022-11-21T23:24:17.462Z,70.50
2022-11-21T23:26:47.002Z,76.50
2022-11-21T23:29:15.261Z,90.00
2022-11-21T23:31:43.444Z,88.50
2022-11-21T23:34:12.144Z,86.60
2022-11-21T23:36:40.248Z,88.40
2022-11-21T23:39:09.155Z,84.70
2022-11-21T23:41:37.693Z,93.20
2022-11-21T23:44:07.374Z,90.40
2022-11-21T23:46:35.586Z,87.70
2022-11-21T23:49:03.818Z,90.30
2022-11-21T23:51:31.946Z,92.30
2022-11-21T23:54:00.271Z,94.30
2022-11-21T23:56:28.396Z,96.40
2022-11-21T23:58:56.573Z,96.40
